Jackson County Reynolds Field
KJXN : now visible

Airfield :











YOU CAN JOIN US ON...

 
LOGIN :

Register | Disclaimer

   EN    FR    IT 

 









Legend :    VFR   Marginal VFR   IFR   Intensive IFR   Very Intensive IFR
Visi :
Ceiling :
>= 8 km
>= 3000ft
5 to 8 km
1000 to 3000 ft
1500m to 5 km
500 to 1000 ft
800 to 1500m
200 to 500 ft
< 800m
< 200 ft
Symbols :   Thunderstorms  Fog  Heavy snow  Heavy precipitations  Wind > 20 kt







- Airport Elevation : 1001 ft


KJXN - Jackson County Reynolds Field

CURRENT METAR :
  • 181856Z 20005KT 10SM FEW075 BKN110 24/22 A2992 RMK AO2 PK WND 26028/1801 RAB19E41 PRESFR SLP126 P0002 T02390222

EXPIRED METARs :
  • 181756Z 25013G22KT 10SM FEW030 SCT047 BKN110 27/22 A2997 RMK AO2 SLP142 T02720222 10294 20233 51013
  • 181656Z 24011KT 10SM SCT025 29/24 A2995 RMK AO2 SLP136 T02890239

TAF KJXN
Valid from the 18 at 18:00 until the 19 at 18:00 UTC


181740Z 1818/1918 23012G21KT P6SM VCTS BKN035CB
FM182000 20010G20KT P6SM -SHRA SCT015 BKN035
FM182300 20010KT P6SM VCSH BKN150
FM191200 23012KT P6SM BKN035
FM191600 22012G20KT P6SM BKN030
KZOB FIR / North America



MET'MAP, your aeronautical weather chart ! - Copyright ORBIFLY December 2007 - Disclaimer

ORBIFLY MET'MAP TEAM :

Programming & Development : Alexandra Zaïnal
Concept & Development : Baudouin d'Aumeries
Co-Development & Prog : Marc-Olivier Méhu
Technical & hardware support : Manuel Goepfert

Contact : metmap@orbifly.com




SOURCES & CREDITS :

   NOAA       Earth
Advisory